sensor_id;sensor_type;location;lat;lon;timestamp;temperature;humidity
11264;DHT22;5689;48.798;9.070;2022-07-22T00:00:14;19.60;99.90
11264;DHT22;5689;48.798;9.070;2022-07-22T00:02:43;19.50;99.90
11264;DHT22;5689;48.798;9.070;2022-07-22T00:05:11;19.50;99.90
11264;DHT22;5689;48.798;9.070;2022-07-22T00:07:40;19.40;99.90
11264;DHT22;5689;48.798;9.070;2022-07-22T00:10:09;19.50;99.90
11264;DHT22;5689;48.798;9.070;2022-07-22T00:12:38;19.50;99.90
11264;DHT22;5689;48.798;9.070;2022-07-22T00:15:07;19.40;99.90
11264;DHT22;5689;48.798;9.070;2022-07-22T00:17:36;19.50;99.90
11264;DHT22;5689;48.798;9.070;2022-07-22T00:20:07;19.50;99.90
11264;DHT22;5689;48.798;9.070;2022-07-22T00:22:35;19.30;99.90
11264;DHT22;5689;48.798;9.070;2022-07-22T00:25:04;19.50;99.90
11264;DHT22;5689;48.798;9.070;2022-07-22T00:27:32;19.50;99.90
11264;DHT22;5689;48.798;9.070;2022-07-22T00:30:00;19.50;99.90
11264;DHT22;5689;48.798;9.070;2022-07-22T00:32:28;19.50;99.90
11264;DHT22;5689;48.798;9.070;2022-07-22T00:34:56;19.40;99.90
11264;DHT22;5689;48.798;9.070;2022-07-22T00:37:26;19.50;99.90
11264;DHT22;5689;48.798;9.070;2022-07-22T00:39:54;19.50;99.90
11264;DHT22;5689;48.798;9.070;2022-07-22T00:42:22;19.40;99.90
11264;DHT22;5689;48.798;9.070;2022-07-22T00:44:50;19.30;99.90
11264;DHT22;5689;48.798;9.070;2022-07-22T00:47:18;19.40;99.90
11264;DHT22;5689;48.798;9.070;2022-07-22T00:49:46;19.30;99.90
11264;DHT22;5689;48.798;9.070;2022-07-22T00:52:14;19.20;99.90
11264;DHT22;5689;48.798;9.070;2022-07-22T00:54:43;19.20;99.90
11264;DHT22;5689;48.798;9.070;2022-07-22T00:57:11;19.20;99.90
11264;DHT22;5689;48.798;9.070;2022-07-22T00:59:39;19.20;99.90
11264;DHT22;5689;48.798;9.070;2022-07-22T01:02:07;19.30;99.90
11264;DHT22;5689;48.798;9.070;2022-07-22T01:04:36;19.20;99.90
11264;DHT22;5689;48.798;9.070;2022-07-22T01:07:04;19.20;99.90
11264;DHT22;5689;48.798;9.070;2022-07-22T01:09:32;19.20;99.90
11264;DHT22;5689;48.798;9.070;2022-07-22T01:12:02;19.10;99.90
11264;DHT22;5689;48.798;9.070;2022-07-22T01:14:30;19.00;99.90
11264;DHT22;5689;48.798;9.070;2022-07-22T01:16:59;19.00;99.90
11264;DHT22;5689;48.798;9.070;2022-07-22T01:19:27;19.00;99.90
11264;DHT22;5689;48.798;9.070;2022-07-22T01:21:56;19.00;99.90
11264;DHT22;5689;48.798;9.070;2022-07-22T01:24:24;19.10;99.90
11264;DHT22;5689;48.798;9.070;2022-07-22T01:26:52;19.10;99.90
11264;DHT22;5689;48.798;9.070;2022-07-22T01:29:20;19.10;99.90
11264;DHT22;5689;48.798;9.070;2022-07-22T01:31:49;19.10;99.90
11264;DHT22;5689;48.798;9.070;2022-07-22T01:34:17;19.10;99.90
11264;DHT22;5689;48.798;9.070;2022-07-22T01:36:45;19.10;99.90
11264;DHT22;5689;48.798;9.070;2022-07-22T01:39:14;19.00;99.90
11264;DHT22;5689;48.798;9.070;2022-07-22T01:41:42;19.00;99.90
11264;DHT22;5689;48.798;9.070;2022-07-22T01:44:12;18.90;99.90
11264;DHT22;5689;48.798;9.070;2022-07-22T01:46:40;18.90;99.90
11264;DHT22;5689;48.798;9.070;2022-07-22T01:49:08;18.80;99.90
11264;DHT22;5689;48.798;9.070;2022-07-22T01:51:38;18.80;99.90
11264;DHT22;5689;48.798;9.070;2022-07-22T01:54:06;18.70;99.90
11264;DHT22;5689;48.798;9.070;2022-07-22T01:56:35;18.60;99.90
11264;DHT22;5689;48.798;9.070;2022-07-22T01:59:03;18.60;99.90
11264;DHT22;5689;48.798;9.070;2022-07-22T02:01:31;18.50;99.90
11264;DHT22;5689;48.798;9.070;2022-07-22T02:04:00;18.60;99.90
11264;DHT22;5689;48.798;9.070;2022-07-22T02:06:28;18.40;99.90
11264;DHT22;5689;48.798;9.070;2022-07-22T02:08:57;18.50;99.90
11264;DHT22;5689;48.798;9.070;2022-07-22T02:11:43;18.50;99.90
11264;DHT22;5689;48.798;9.070;2022-07-22T02:14:13;18.40;99.90
11264;DHT22;5689;48.798;9.070;2022-07-22T02:16:41;18.40;99.90
11264;DHT22;5689;48.798;9.070;2022-07-22T02:19:11;18.40;99.90
11264;DHT22;5689;48.798;9.070;2022-07-22T02:21:39;18.50;99.90
11264;DHT22;5689;48.798;9.070;2022-07-22T02:24:07;18.30;99.90
11264;DHT22;5689;48.798;9.070;2022-07-22T02:26:35;18.20;99.90
11264;DHT22;5689;48.798;9.070;2022-07-22T02:29:04;18.30;99.90
11264;DHT22;5689;48.798;9.070;2022-07-22T02:31:32;18.30;99.90
11264;DHT22;5689;48.798;9.070;2022-07-22T02:34:00;18.40;99.90
11264;DHT22;5689;48.798;9.070;2022-07-22T02:36:29;18.40;99.90
11264;DHT22;5689;48.798;9.070;2022-07-22T02:38:57;18.30;99.90
11264;DHT22;5689;48.798;9.070;2022-07-22T02:41:26;18.20;99.90
11264;DHT22;5689;48.798;9.070;2022-07-22T02:43:55;18.20;99.90
11264;DHT22;5689;48.798;9.070;2022-07-22T02:46:25;18.20;99.90
11264;DHT22;5689;48.798;9.070;2022-07-22T02:48:57;18.10;99.90
11264;DHT22;5689;48.798;9.070;2022-07-22T02:51:26;18.00;99.90
11264;DHT22;5689;48.798;9.070;2022-07-22T02:53:54;18.10;99.90
11264;DHT22;5689;48.798;9.070;2022-07-22T02:56:22;18.00;99.90
11264;DHT22;5689;48.798;9.070;2022-07-22T02:58:51;17.90;99.90
11264;DHT22;5689;48.798;9.070;2022-07-22T03:01:20;17.80;99.90
11264;DHT22;5689;48.798;9.070;2022-07-22T03:03:54;17.80;99.90
11264;DHT22;5689;48.798;9.070;2022-07-22T03:06:24;17.80;99.90
11264;DHT22;5689;48.798;9.070;2022-07-22T03:09:02;17.70;99.90
11264;DHT22;5689;48.798;9.070;2022-07-22T03:11:31;17.60;99.90
11264;DHT22;5689;48.798;9.070;2022-07-22T03:14:00;17.70;99.90
11264;DHT22;5689;48.798;9.070;2022-07-22T03:16:28;17.80;99.90
11264;DHT22;5689;48.798;9.070;2022-07-22T03:18:58;17.70;99.90
11264;DHT22;5689;48.798;9.070;2022-07-22T03:21:26;17.80;99.90
11264;DHT22;5689;48.798;9.070;2022-07-22T03:23:55;17.80;99.90
11264;DHT22;5689;48.798;9.070;2022-07-22T03:26:24;17.90;99.90
11264;DHT22;5689;48.798;9.070;2022-07-22T03:28:52;17.80;99.90
11264;DHT22;5689;48.798;9.070;2022-07-22T03:31:21;17.90;99.90
11264;DHT22;5689;48.798;9.070;2022-07-22T03:33:49;17.80;99.90
11264;DHT22;5689;48.798;9.070;2022-07-22T03:36:20;17.70;99.90
11264;DHT22;5689;48.798;9.070;2022-07-22T03:38:51;17.50;99.90
11264;DHT22;5689;48.798;9.070;2022-07-22T03:41:19;17.50;99.90
11264;DHT22;5689;48.798;9.070;2022-07-22T03:43:47;17.60;99.90
11264;DHT22;5689;48.798;9.070;2022-07-22T03:46:16;17.60;99.90
11264;DHT22;5689;48.798;9.070;2022-07-22T03:48:44;17.40;99.90
11264;DHT22;5689;48.798;9.070;2022-07-22T03:51:13;17.50;99.90
11264;DHT22;5689;48.798;9.070;2022-07-22T03:53:44;17.50;99.90
11264;DHT22;5689;48.798;9.070;2022-07-22T03:56:12;17.60;99.90
11264;DHT22;5689;48.798;9.070;2022-07-22T03:58:40;17.50;99.90
11264;DHT22;5689;48.798;9.070;2022-07-22T04:01:09;17.50;99.90
11264;DHT22;5689;48.798;9.070;2022-07-22T04:03:39;17.50;99.90
11264;DHT22;5689;48.798;9.070;2022-07-22T04:06:20;17.60;99.90
11264;DHT22;5689;48.798;9.070;2022-07-22T04:08:57;17.60;99.90
11264;DHT22;5689;48.798;9.070;2022-07-22T04:11:26;17.80;99.90
11264;DHT22;5689;48.798;9.070;2022-07-22T04:13:54;17.60;99.90
11264;DHT22;5689;48.798;9.070;2022-07-22T04:16:22;17.50;99.90
11264;DHT22;5689;48.798;9.070;2022-07-22T04:18:58;17.60;99.90
11264;DHT22;5689;48.798;9.070;2022-07-22T04:21:44;17.60;99.90
11264;DHT22;5689;48.798;9.070;2022-07-22T04:24:14;17.70;99.90
11264;DHT22;5689;48.798;9.070;2022-07-22T04:26:42;18.00;99.90
11264;DHT22;5689;48.798;9.070;2022-07-22T04:29:10;17.90;99.90
11264;DHT22;5689;48.798;9.070;2022-07-22T04:31:39;18.00;99.90
11264;DHT22;5689;48.798;9.070;2022-07-22T04:34:18;18.10;99.90
11264;DHT22;5689;48.798;9.070;2022-07-22T04:36:48;18.00;99.90
11264;DHT22;5689;48.798;9.070;2022-07-22T04:39:18;18.20;99.90
11264;DHT22;5689;48.798;9.070;2022-07-22T04:41:55;18.40;99.90
11264;DHT22;5689;48.798;9.070;2022-07-22T04:44:23;18.30;99.90
11264;DHT22;5689;48.798;9.070;2022-07-22T04:46:51;18.30;99.90
11264;DHT22;5689;48.798;9.070;2022-07-22T04:49:19;18.40;99.90
11264;DHT22;5689;48.798;9.070;2022-07-22T04:51:47;18.60;99.90
11264;DHT22;5689;48.798;9.070;2022-07-22T04:54:26;18.70;99.90
11264;DHT22;5689;48.798;9.070;2022-07-22T04:56:57;18.60;99.90
11264;DHT22;5689;48.798;9.070;2022-07-22T04:59:25;18.50;99.90
11264;DHT22;5689;48.798;9.070;2022-07-22T05:01:53;18.60;99.90
11264;DHT22;5689;48.798;9.070;2022-07-22T05:04:21;18.80;99.90
11264;DHT22;5689;48.798;9.070;2022-07-22T05:06:51;18.80;99.90
11264;DHT22;5689;48.798;9.070;2022-07-22T05:09:19;18.90;99.90
11264;DHT22;5689;48.798;9.070;2022-07-22T05:11:48;19.00;99.90
11264;DHT22;5689;48.798;9.070;2022-07-22T05:14:19;19.00;99.90
11264;DHT22;5689;48.798;9.070;2022-07-22T05:16:48;18.80;99.90
11264;DHT22;5689;48.798;9.070;2022-07-22T05:19:16;18.90;99.90
11264;DHT22;5689;48.798;9.070;2022-07-22T05:21:44;19.00;99.90
11264;DHT22;5689;48.798;9.070;2022-07-22T05:24:12;19.20;99.90
11264;DHT22;5689;48.798;9.070;2022-07-22T05:26:40;19.60;99.90
11264;DHT22;5689;48.798;9.070;2022-07-22T05:29:09;20.00;99.90
11264;DHT22;5689;48.798;9.070;2022-07-22T05:31:37;20.10;99.90
11264;DHT22;5689;48.798;9.070;2022-07-22T05:34:05;19.80;99.90
11264;DHT22;5689;48.798;9.070;2022-07-22T05:36:40;19.80;99.90
11264;DHT22;5689;48.798;9.070;2022-07-22T05:39:09;20.00;99.90
11264;DHT22;5689;48.798;9.070;2022-07-22T05:41:37;20.30;99.90
11264;DHT22;5689;48.798;9.070;2022-07-22T05:44:06;20.70;99.90
11264;DHT22;5689;48.798;9.070;2022-07-22T05:46:35;21.20;99.90
11264;DHT22;5689;48.798;9.070;2022-07-22T05:49:04;21.20;99.90
11264;DHT22;5689;48.798;9.070;2022-07-22T05:51:41;21.70;99.90
11264;DHT22;5689;48.798;9.070;2022-07-22T05:54:09;21.40;99.90
11264;DHT22;5689;48.798;9.070;2022-07-22T05:56:37;21.30;99.90
11264;DHT22;5689;48.798;9.070;2022-07-22T05:59:06;21.00;99.90
11264;DHT22;5689;48.798;9.070;2022-07-22T06:01:35;21.80;99.90
11264;DHT22;5689;48.798;9.070;2022-07-22T06:04:17;21.80;99.90
11264;DHT22;5689;48.798;9.070;2022-07-22T06:06:45;21.50;99.90
11264;DHT22;5689;48.798;9.070;2022-07-22T06:09:13;21.50;99.90
11264;DHT22;5689;48.798;9.070;2022-07-22T06:11:41;21.70;99.90
11264;DHT22;5689;48.798;9.070;2022-07-22T06:14:09;21.80;99.90
11264;DHT22;5689;48.798;9.070;2022-07-22T06:16:39;22.00;99.90
11264;DHT22;5689;48.798;9.070;2022-07-22T06:19:07;21.90;99.90
11264;DHT22;5689;48.798;9.070;2022-07-22T06:21:35;21.70;99.90
11264;DHT22;5689;48.798;9.070;2022-07-22T06:24:11;22.10;99.90
11264;DHT22;5689;48.798;9.070;2022-07-22T06:26:39;22.30;99.90
11264;DHT22;5689;48.798;9.070;2022-07-22T06:29:07;23.20;99.90
11264;DHT22;5689;48.798;9.070;2022-07-22T06:31:36;23.50;99.90
11264;DHT22;5689;48.798;9.070;2022-07-22T06:34:05;24.10;99.90
11264;DHT22;5689;48.798;9.070;2022-07-22T06:36:51;23.60;99.90
11264;DHT22;5689;48.798;9.070;2022-07-22T06:39:18;23.90;99.90
11264;DHT22;5689;48.798;9.070;2022-07-22T06:42:08;24.60;99.90
11264;DHT22;5689;48.798;9.070;2022-07-22T06:44:45;23.80;99.90
11264;DHT22;5689;48.798;9.070;2022-07-22T06:47:26;23.90;99.90
11264;DHT22;5689;48.798;9.070;2022-07-22T06:49:55;25.10;99.90
11264;DHT22;5689;48.798;9.070;2022-07-22T06:52:23;24.90;99.90
11264;DHT22;5689;48.798;9.070;2022-07-22T06:54:51;25.70;99.90
11264;DHT22;5689;48.798;9.070;2022-07-22T06:57:23;24.90;99.90
11264;DHT22;5689;48.798;9.070;2022-07-22T06:59:52;24.40;99.90
11264;DHT22;5689;48.798;9.070;2022-07-22T07:02:20;25.00;99.90
11264;DHT22;5689;48.798;9.070;2022-07-22T07:04:48;25.30;99.90
11264;DHT22;5689;48.798;9.070;2022-07-22T07:07:17;25.50;99.90
11264;DHT22;5689;48.798;9.070;2022-07-22T07:10:00;25.10;99.90
11264;DHT22;5689;48.798;9.070;2022-07-22T07:12:37;26.00;99.90
11264;DHT22;5689;48.798;9.070;2022-07-22T07:15:09;26.70;99.90
11264;DHT22;5689;48.798;9.070;2022-07-22T07:17:50;26.30;99.90
11264;DHT22;5689;48.798;9.070;2022-07-22T07:20:18;26.50;99.90
11264;DHT22;5689;48.798;9.070;2022-07-22T07:22:48;27.30;99.90
11264;DHT22;5689;48.798;9.070;2022-07-22T07:25:16;27.40;99.90
11264;DHT22;5689;48.798;9.070;2022-07-22T07:27:45;26.90;99.90
11264;DHT22;5689;48.798;9.070;2022-07-22T07:30:14;27.80;99.90
11264;DHT22;5689;48.798;9.070;2022-07-22T07:32:43;27.90;99.90
11264;DHT22;5689;48.798;9.070;2022-07-22T07:35:11;27.30;99.90
11264;DHT22;5689;48.798;9.070;2022-07-22T07:37:39;28.20;99.90
11264;DHT22;5689;48.798;9.070;2022-07-22T07:40:09;28.50;99.90
11264;DHT22;5689;48.798;9.070;2022-07-22T07:42:37;28.20;99.90
11264;DHT22;5689;48.798;9.070;2022-07-22T07:45:11;28.40;99.90
11264;DHT22;5689;48.798;9.070;2022-07-22T07:47:40;28.70;98.90
11264;DHT22;5689;48.798;9.070;2022-07-22T07:50:09;29.00;99.30
11264;DHT22;5689;48.798;9.070;2022-07-22T07:52:38;29.20;97.70
11264;DHT22;5689;48.798;9.070;2022-07-22T07:55:09;28.30;99.20
11264;DHT22;5689;48.798;9.070;2022-07-22T07:57:38;28.00;99.90
11264;DHT22;5689;48.798;9.070;2022-07-22T08:00:11;27.70;99.90
11264;DHT22;5689;48.798;9.070;2022-07-22T08:02:45;28.30;99.30
11264;DHT22;5689;48.798;9.070;2022-07-22T08:05:13;28.50;98.50
11264;DHT22;5689;48.798;9.070;2022-07-22T08:07:41;30.10;95.70
11264;DHT22;5689;48.798;9.070;2022-07-22T08:10:11;30.50;95.50
11264;DHT22;5689;48.798;9.070;2022-07-22T08:13:09;30.00;94.70
11264;DHT22;5689;48.798;9.070;2022-07-22T08:15:56;30.60;93.50
11264;DHT22;5689;48.798;9.070;2022-07-22T08:18:26;31.60;91.80
11264;DHT22;5689;48.798;9.070;2022-07-22T08:20:54;30.40;91.70
11264;DHT22;5689;48.798;9.070;2022-07-22T08:23:34;30.50;91.90
11264;DHT22;5689;48.798;9.070;2022-07-22T08:26:04;32.00;90.30
11264;DHT22;5689;48.798;9.070;2022-07-22T08:28:32;31.60;90.20
11264;DHT22;5689;48.798;9.070;2022-07-22T08:31:00;32.80;87.70
11264;DHT22;5689;48.798;9.070;2022-07-22T08:33:29;32.90;83.90
11264;DHT22;5689;48.798;9.070;2022-07-22T08:35:57;34.00;81.40
11264;DHT22;5689;48.798;9.070;2022-07-22T08:38:25;34.30;79.00
11264;DHT22;5689;48.798;9.070;2022-07-22T08:40:54;33.30;79.40
11264;DHT22;5689;48.798;9.070;2022-07-22T08:43:28;33.10;81.80
11264;DHT22;5689;48.798;9.070;2022-07-22T08:45:57;32.50;81.70
11264;DHT22;5689;48.798;9.070;2022-07-22T08:48:26;31.60;84.90
11264;DHT22;5689;48.798;9.070;2022-07-22T08:51:20;32.40;82.10
11264;DHT22;5689;48.798;9.070;2022-07-22T08:54:14;34.30;77.80
11264;DHT22;5689;48.798;9.070;2022-07-22T08:56:46;33.50;79.00
11264;DHT22;5689;48.798;9.070;2022-07-22T08:59:15;33.90;78.40
11264;DHT22;5689;48.798;9.070;2022-07-22T09:02:02;34.90;74.70
11264;DHT22;5689;48.798;9.070;2022-07-22T09:04:32;35.00;74.50
11264;DHT22;5689;48.798;9.070;2022-07-22T09:07:00;35.00;72.70
11264;DHT22;5689;48.798;9.070;2022-07-22T09:09:32;32.50;76.50
11264;DHT22;5689;48.798;9.070;2022-07-22T09:12:29;33.30;77.60
11264;DHT22;5689;48.798;9.070;2022-07-22T09:15:26;33.80;76.00
11264;DHT22;5689;48.798;9.070;2022-07-22T09:18:15;33.60;74.70
11264;DHT22;5689;48.798;9.070;2022-07-22T09:20:59;35.10;73.70
11264;DHT22;5689;48.798;9.070;2022-07-22T09:23:39;35.00;72.60
11264;DHT22;5689;48.798;9.070;2022-07-22T09:26:08;34.90;68.60
11264;DHT22;5689;48.798;9.070;2022-07-22T09:29:03;34.50;69.40
11264;DHT22;5689;48.798;9.070;2022-07-22T09:31:35;34.30;69.40
11264;DHT22;5689;48.798;9.070;2022-07-22T09:34:26;35.20;70.10
11264;DHT22;5689;48.798;9.070;2022-07-22T09:36:58;36.20;67.90
11264;DHT22;5689;48.798;9.070;2022-07-22T09:39:29;34.40;69.20
11264;DHT22;5689;48.798;9.070;2022-07-22T09:42:00;36.50;66.20
11264;DHT22;5689;48.798;9.070;2022-07-22T09:44:29;35.60;64.30
11264;DHT22;5689;48.798;9.070;2022-07-22T09:47:04;35.50;67.00
11264;DHT22;5689;48.798;9.070;2022-07-22T09:49:49;36.00;65.70
11264;DHT22;5689;48.798;9.070;2022-07-22T09:52:46;36.00;66.40
11264;DHT22;5689;48.798;9.070;2022-07-22T09:55:25;34.80;66.70
11264;DHT22;5689;48.798;9.070;2022-07-22T09:57:55;33.40;69.40
11264;DHT22;5689;48.798;9.070;2022-07-22T10:00:26;34.40;68.70
11264;DHT22;5689;48.798;9.070;2022-07-22T10:02:59;35.80;66.90
11264;DHT22;5689;48.798;9.070;2022-07-22T10:05:32;37.10;63.10
11264;DHT22;5689;48.798;9.070;2022-07-22T10:08:02;36.30;63.80
11264;DHT22;5689;48.798;9.070;2022-07-22T10:10:31;36.20;64.50
11264;DHT22;5689;48.798;9.070;2022-07-22T10:13:01;35.40;65.80
11264;DHT22;5689;48.798;9.070;2022-07-22T10:15:32;34.90;66.60
11264;DHT22;5689;48.798;9.070;2022-07-22T10:18:05;34.90;65.80
11264;DHT22;5689;48.798;9.070;2022-07-22T10:20:35;34.70;66.20
11264;DHT22;5689;48.798;9.070;2022-07-22T10:23:04;35.20;65.30
11264;DHT22;5689;48.798;9.070;2022-07-22T10:25:49;34.10;68.90
11264;DHT22;5689;48.798;9.070;2022-07-22T10:28:22;34.20;67.50
11264;DHT22;5689;48.798;9.070;2022-07-22T10:30:51;33.20;65.90
11264;DHT22;5689;48.798;9.070;2022-07-22T10:33:21;33.60;68.10
11264;DHT22;5689;48.798;9.070;2022-07-22T10:35:55;34.90;65.60
11264;DHT22;5689;48.798;9.070;2022-07-22T10:38:25;35.60;65.00
11264;DHT22;5689;48.798;9.070;2022-07-22T10:40:55;34.90;66.50
11264;DHT22;5689;48.798;9.070;2022-07-22T10:43:24;36.60;62.50
11264;DHT22;5689;48.798;9.070;2022-07-22T10:45:54;35.60;62.60
11264;DHT22;5689;48.798;9.070;2022-07-22T10:48:44;37.30;60.70
11264;DHT22;5689;48.798;9.070;2022-07-22T10:51:14;35.60;62.80
11264;DHT22;5689;48.798;9.070;2022-07-22T10:53:47;37.60;59.00
11264;DHT22;5689;48.798;9.070;2022-07-22T10:56:23;36.30;59.30
11264;DHT22;5689;48.798;9.070;2022-07-22T10:58:59;38.00;57.70
11264;DHT22;5689;48.798;9.070;2022-07-22T11:01:36;36.60;58.80
11264;DHT22;5689;48.798;9.070;2022-07-22T11:04:11;36.60;59.40
11264;DHT22;5689;48.798;9.070;2022-07-22T11:06:43;36.80;59.40
11264;DHT22;5689;48.798;9.070;2022-07-22T11:09:13;36.00;59.50
11264;DHT22;5689;48.798;9.070;2022-07-22T11:11:42;35.70;59.60
11264;DHT22;5689;48.798;9.070;2022-07-22T11:14:12;36.30;59.40
11264;DHT22;5689;48.798;9.070;2022-07-22T11:16:41;36.70;58.90
11264;DHT22;5689;48.798;9.070;2022-07-22T11:19:10;37.40;58.40
11264;DHT22;5689;48.798;9.070;2022-07-22T11:21:39;38.60;58.00
11264;DHT22;5689;48.798;9.070;2022-07-22T11:24:08;38.20;58.60
11264;DHT22;5689;48.798;9.070;2022-07-22T11:26:39;37.70;59.80
11264;DHT22;5689;48.798;9.070;2022-07-22T11:29:08;39.30;57.00
11264;DHT22;5689;48.798;9.070;2022-07-22T11:31:37;39.80;54.40
11264;DHT22;5689;48.798;9.070;2022-07-22T11:34:07;39.00;53.60
11264;DHT22;5689;48.798;9.070;2022-07-22T11:36:38;37.50;56.70
11264;DHT22;5689;48.798;9.070;2022-07-22T11:39:08;37.90;54.80
11264;DHT22;5689;48.798;9.070;2022-07-22T11:41:37;37.10;57.00
11264;DHT22;5689;48.798;9.070;2022-07-22T11:44:05;38.40;54.80
11264;DHT22;5689;48.798;9.070;2022-07-22T11:46:38;37.20;54.70
11264;DHT22;5689;48.798;9.070;2022-07-22T11:49:08;35.90;57.20
11264;DHT22;5689;48.798;9.070;2022-07-22T11:51:38;36.80;55.40
11264;DHT22;5689;48.798;9.070;2022-07-22T11:54:06;38.30;54.20
11264;DHT22;5689;48.798;9.070;2022-07-22T11:56:35;39.00;54.40
11264;DHT22;5689;48.798;9.070;2022-07-22T11:59:04;39.60;53.60
11264;DHT22;5689;48.798;9.070;2022-07-22T12:01:34;42.50;49.40
11264;DHT22;5689;48.798;9.070;2022-07-22T12:04:04;43.40;48.60
11264;DHT22;5689;48.798;9.070;2022-07-22T12:06:35;41.00;45.80
11264;DHT22;5689;48.798;9.070;2022-07-22T12:09:07;40.90;47.30
11264;DHT22;5689;48.798;9.070;2022-07-22T12:11:37;40.10;46.30
11264;DHT22;5689;48.798;9.070;2022-07-22T12:14:08;40.80;44.70
11264;DHT22;5689;48.798;9.070;2022-07-22T12:16:42;39.20;47.00
11264;DHT22;5689;48.798;9.070;2022-07-22T12:19:11;37.80;48.70
11264;DHT22;5689;48.798;9.070;2022-07-22T12:21:51;40.20;46.30
11264;DHT22;5689;48.798;9.070;2022-07-22T12:24:28;41.10;47.60
11264;DHT22;5689;48.798;9.070;2022-07-22T12:26:58;41.00;47.70
11264;DHT22;5689;48.798;9.070;2022-07-22T12:29:28;40.80;45.90
11264;DHT22;5689;48.798;9.070;2022-07-22T12:31:59;39.00;48.40
11264;DHT22;5689;48.798;9.070;2022-07-22T12:34:33;41.00;47.80
11264;DHT22;5689;48.798;9.070;2022-07-22T12:37:12;41.00;46.90
11264;DHT22;5689;48.798;9.070;2022-07-22T12:39:54;40.30;46.80
11264;DHT22;5689;48.798;9.070;2022-07-22T12:42:22;40.80;48.20
11264;DHT22;5689;48.798;9.070;2022-07-22T12:44:51;43.80;44.90
11264;DHT22;5689;48.798;9.070;2022-07-22T12:47:41;44.00;43.70
11264;DHT22;5689;48.798;9.070;2022-07-22T12:50:17;43.80;43.80
11264;DHT22;5689;48.798;9.070;2022-07-22T12:52:45;41.70;45.00
11264;DHT22;5689;48.798;9.070;2022-07-22T12:55:26;40.10;47.70
11264;DHT22;5689;48.798;9.070;2022-07-22T12:57:54;42.20;46.50
11264;DHT22;5689;48.798;9.070;2022-07-22T13:00:23;43.00;45.70
11264;DHT22;5689;48.798;9.070;2022-07-22T13:02:52;44.50;43.70
11264;DHT22;5689;48.798;9.070;2022-07-22T13:05:20;45.70;42.50
11264;DHT22;5689;48.798;9.070;2022-07-22T13:07:48;44.20;43.00
11264;DHT22;5689;48.798;9.070;2022-07-22T13:10:17;46.50;42.00
11264;DHT22;5689;48.798;9.070;2022-07-22T13:12:47;45.90;40.70
11264;DHT22;5689;48.798;9.070;2022-07-22T13:15:15;44.10;42.20
11264;DHT22;5689;48.798;9.070;2022-07-22T13:17:43;42.50;43.50
11264;DHT22;5689;48.798;9.070;2022-07-22T13:20:13;40.70;45.20
11264;DHT22;5689;48.798;9.070;2022-07-22T13:22:45;42.80;43.80
11264;DHT22;5689;48.798;9.070;2022-07-22T13:25:13;43.90;43.20
11264;DHT22;5689;48.798;9.070;2022-07-22T13:27:41;43.70;42.40
11264;DHT22;5689;48.798;9.070;2022-07-22T13:30:11;43.90;42.70
11264;DHT22;5689;48.798;9.070;2022-07-22T13:32:40;41.40;46.40
11264;DHT22;5689;48.798;9.070;2022-07-22T13:35:14;42.10;44.40
11264;DHT22;5689;48.798;9.070;2022-07-22T13:37:42;40.90;46.00
11264;DHT22;5689;48.798;9.070;2022-07-22T13:40:11;41.40;45.30
11264;DHT22;5689;48.798;9.070;2022-07-22T13:42:39;42.10;45.20
11264;DHT22;5689;48.798;9.070;2022-07-22T13:45:08;41.70;43.90
11264;DHT22;5689;48.798;9.070;2022-07-22T13:47:41;43.90;42.40
11264;DHT22;5689;48.798;9.070;2022-07-22T13:50:09;42.90;43.00
11264;DHT22;5689;48.798;9.070;2022-07-22T13:52:37;42.80;42.70
11264;DHT22;5689;48.798;9.070;2022-07-22T13:55:05;42.20;43.10
11264;DHT22;5689;48.798;9.070;2022-07-22T13:57:33;38.40;46.50
11264;DHT22;5689;48.798;9.070;2022-07-22T14:00:03;39.50;47.20
11264;DHT22;5689;48.798;9.070;2022-07-22T14:02:33;41.20;44.80
11264;DHT22;5689;48.798;9.070;2022-07-22T14:05:02;43.20;42.80
11264;DHT22;5689;48.798;9.070;2022-07-22T14:07:30;43.00;42.00
11264;DHT22;5689;48.798;9.070;2022-07-22T14:09:58;39.10;46.20
11264;DHT22;5689;48.798;9.070;2022-07-22T14:12:26;40.40;44.90
11264;DHT22;5689;48.798;9.070;2022-07-22T14:14:54;41.80;44.60
11264;DHT22;5689;48.798;9.070;2022-07-22T14:17:22;41.40;43.00
11264;DHT22;5689;48.798;9.070;2022-07-22T14:19:51;39.90;44.40
11264;DHT22;5689;48.798;9.070;2022-07-22T14:22:23;42.00;43.80
11264;DHT22;5689;48.798;9.070;2022-07-22T14:24:51;42.40;43.20
11264;DHT22;5689;48.798;9.070;2022-07-22T14:27:19;42.50;42.80
11264;DHT22;5689;48.798;9.070;2022-07-22T14:29:47;43.30;42.80
11264;DHT22;5689;48.798;9.070;2022-07-22T14:32:15;42.00;42.40
11264;DHT22;5689;48.798;9.070;2022-07-22T14:34:43;42.40;42.20
11264;DHT22;5689;48.798;9.070;2022-07-22T14:37:11;41.10;43.20
11264;DHT22;5689;48.798;9.070;2022-07-22T14:39:41;42.00;43.50
11264;DHT22;5689;48.798;9.070;2022-07-22T14:42:09;42.30;43.50
11264;DHT22;5689;48.798;9.070;2022-07-22T14:44:37;40.70;44.30
11264;DHT22;5689;48.798;9.070;2022-07-22T14:47:05;42.70;43.30
11264;DHT22;5689;48.798;9.070;2022-07-22T14:49:33;43.90;41.80
11264;DHT22;5689;48.798;9.070;2022-07-22T14:52:01;44.70;40.60
11264;DHT22;5689;48.798;9.070;2022-07-22T14:54:29;43.80;41.10
11264;DHT22;5689;48.798;9.070;2022-07-22T14:56:58;42.80;42.50
11264;DHT22;5689;48.798;9.070;2022-07-22T14:59:26;41.80;43.40
11264;DHT22;5689;48.798;9.070;2022-07-22T15:01:55;42.00;42.90
11264;DHT22;5689;48.798;9.070;2022-07-22T15:04:23;41.70;43.10
11264;DHT22;5689;48.798;9.070;2022-07-22T15:06:51;42.90;42.00
11264;DHT22;5689;48.798;9.070;2022-07-22T15:09:19;42.20;42.20
11264;DHT22;5689;48.798;9.070;2022-07-22T15:11:47;42.70;42.30
11264;DHT22;5689;48.798;9.070;2022-07-22T15:14:17;41.90;43.20
11264;DHT22;5689;48.798;9.070;2022-07-22T15:16:45;41.80;42.70
11264;DHT22;5689;48.798;9.070;2022-07-22T15:19:13;40.70;44.40
11264;DHT22;5689;48.798;9.070;2022-07-22T15:21:41;38.60;46.50
11264;DHT22;5689;48.798;9.070;2022-07-22T15:24:09;36.50;48.90
11264;DHT22;5689;48.798;9.070;2022-07-22T15:26:37;35.70;50.70
11264;DHT22;5689;48.798;9.070;2022-07-22T15:29:05;35.70;51.50
11264;DHT22;5689;48.798;9.070;2022-07-22T15:31:34;35.50;51.30
11264;DHT22;5689;48.798;9.070;2022-07-22T15:34:03;35.30;53.40
11264;DHT22;5689;48.798;9.070;2022-07-22T15:36:31;35.10;53.20
11264;DHT22;5689;48.798;9.070;2022-07-22T15:38:59;35.80;53.10
11264;DHT22;5689;48.798;9.070;2022-07-22T15:41:27;36.20;51.60
11264;DHT22;5689;48.798;9.070;2022-07-22T15:43:55;36.10;51.00
11264;DHT22;5689;48.798;9.070;2022-07-22T15:46:24;36.10;51.40
11264;DHT22;5689;48.798;9.070;2022-07-22T15:48:53;35.60;52.20
11264;DHT22;5689;48.798;9.070;2022-07-22T15:51:21;36.50;51.50
11264;DHT22;5689;48.798;9.070;2022-07-22T15:53:50;36.20;50.80
11264;DHT22;5689;48.798;9.070;2022-07-22T15:56:18;37.40;48.80
11264;DHT22;5689;48.798;9.070;2022-07-22T15:58:46;37.30;50.90
11264;DHT22;5689;48.798;9.070;2022-07-22T16:01:52;38.60;48.90
11264;DHT22;5689;48.798;9.070;2022-07-22T16:04:21;40.70;45.70
11264;DHT22;5689;48.798;9.070;2022-07-22T16:06:50;40.30;45.70